createdAt,value
2017-08-27T00:01:04.368Z,20.11
2017-08-27T00:02:04.656Z,20.11
2017-08-27T00:03:59.168Z,20.13
2017-08-27T00:04:59.192Z,20.14
2017-08-27T00:06:53.417Z,20.14
2017-08-27T00:07:53.801Z,20.17
2017-08-27T00:09:47.889Z,20.26
2017-08-27T00:10:47.929Z,20.23
2017-08-27T00:12:42.457Z,20.26
2017-08-27T00:13:42.416Z,20.26
2017-08-27T00:15:37.153Z,20.23
2017-08-27T00:16:36.905Z,20.21
2017-08-27T00:18:31.409Z,20.29
2017-08-27T00:19:31.425Z,20.31
2017-08-27T00:21:25.899Z,20.24
2017-08-27T00:22:25.921Z,20.24
2017-08-27T00:24:20.642Z,20.23
2017-08-27T00:25:20.422Z,20.36
2017-08-27T00:27:15.089Z,20.31
2017-08-27T00:28:15.145Z,20.32
2017-08-27T00:30:08.402Z,20.24
2017-08-27T00:31:08.722Z,20.29
2017-08-27T00:33:01.890Z,20.31
2017-08-27T00:34:01.922Z,20.28
2017-08-27T00:35:56.402Z,20.28
2017-08-27T00:36:56.714Z,20.26
2017-08-27T00:38:51.026Z,20.21
2017-08-27T00:39:50.914Z,20.20
2017-08-27T00:41:45.394Z,20.16
2017-08-27T00:42:45.425Z,20.21
2017-08-27T00:46:13.706Z,20.17
2017-08-27T00:47:13.746Z,20.11
2017-08-27T00:49:08.578Z,20.21
2017-08-27T00:50:08.554Z,20.17
2017-08-27T00:52:02.690Z,20.05
2017-08-27T00:53:02.731Z,20.02
2017-08-27T00:54:56.219Z,20.01
2017-08-27T00:55:56.227Z,20.03
2017-08-27T00:57:50.907Z,20.06
2017-08-27T00:58:50.730Z,19.99
2017-08-27T01:00:45.227Z,20.01
2017-08-27T01:01:45.227Z,19.94
2017-08-27T01:03:39.683Z,19.96
2017-08-27T01:04:39.739Z,19.99
2017-08-27T01:06:34.228Z,19.94
2017-08-27T01:07:34.242Z,19.84
2017-08-27T01:09:28.691Z,19.87
2017-08-27T01:10:29.020Z,19.87
2017-08-27T01:12:23.212Z,19.81
2017-08-27T01:13:23.220Z,19.84
2017-08-27T01:15:17.684Z,19.95
2017-08-27T01:16:17.860Z,19.99
2017-08-27T01:18:12.212Z,19.86
2017-08-27T01:19:12.220Z,19.80
2017-08-27T01:21:06.676Z,19.91
2017-08-27T01:22:06.708Z,19.84
2017-08-27T01:24:01.220Z,19.81
2017-08-27T01:25:01.228Z,19.88
2017-08-27T01:26:55.988Z,19.76
2017-08-27T01:27:55.756Z,19.76
2017-08-27T01:29:50.192Z,19.68
2017-08-27T01:30:50.216Z,19.71
2017-08-27T01:32:45.113Z,19.76
2017-08-27T01:33:44.704Z,19.66
2017-08-27T01:35:39.189Z,19.66
2017-08-27T01:36:39.232Z,19.66
2017-08-27T01:38:33.689Z,19.66
2017-08-27T01:39:33.712Z,19.56
2017-08-27T01:41:28.208Z,19.59
2017-08-27T01:42:28.209Z,19.58
2017-08-27T01:44:22.664Z,19.63
2017-08-27T01:45:22.705Z,19.55
2017-08-27T02:04:23.305Z,19.31
2017-08-27T02:05:23.306Z,19.29
2017-08-27T02:07:17.761Z,19.28
2017-08-27T02:08:17.802Z,19.29
2017-08-27T02:10:12.610Z,19.23
2017-08-27T02:11:12.401Z,19.18
2017-08-27T02:13:06.938Z,19.14
2017-08-27T02:14:06.818Z,19.08
2017-08-27T02:16:01.292Z,19.08
2017-08-27T02:17:01.298Z,19.11
2017-08-27T02:18:55.954Z,19.07
2017-08-27T02:19:55.802Z,19.02
2017-08-27T02:21:50.283Z,19.02
2017-08-27T02:22:50.283Z,19.07
2017-08-27T02:24:44.754Z,18.92
2017-08-27T02:25:44.787Z,18.95
2017-08-27T02:27:39.274Z,18.84
2017-08-27T02:28:39.282Z,18.85
2017-08-27T02:30:33.749Z,18.85
2017-08-27T02:31:33.787Z,18.92
2017-08-27T02:33:28.252Z,18.84
2017-08-27T02:34:28.707Z,18.84
2017-08-27T02:36:22.755Z,18.92
2017-08-27T02:37:22.771Z,18.82
2017-08-27T02:39:17.515Z,18.80
2017-08-27T02:40:17.291Z,18.82
2017-08-27T02:42:11.746Z,18.72
2017-08-27T02:43:11.755Z,18.72
2017-08-27T02:45:06.236Z,18.75
2017-08-27T02:46:06.300Z,18.70
2017-08-27T02:48:00.931Z,18.78
2017-08-27T02:49:00.796Z,18.78
2017-08-27T02:50:55.243Z,18.69
2017-08-27T02:51:55.268Z,18.78
2017-08-27T02:53:51.245Z,18.73
2017-08-27T02:54:51.260Z,18.76
2017-08-27T02:56:44.732Z,18.67
2017-08-27T02:57:45.068Z,18.69
2017-08-27T02:59:39.260Z,18.65
2017-08-27T03:00:39.268Z,18.62
2017-08-27T03:02:33.956Z,18.65
2017-08-27T03:03:33.772Z,18.65
2017-08-27T03:05:28.431Z,18.70
2017-08-27T03:06:28.252Z,18.60
2017-08-27T03:08:22.740Z,18.67
2017-08-27T03:09:22.876Z,18.55
2017-08-27T03:11:17.580Z,18.60
2017-08-27T03:12:17.260Z,18.63
2017-08-27T03:14:10.725Z,18.72
2017-08-27T03:15:10.740Z,18.62
2017-08-27T03:17:05.197Z,18.63
2017-08-27T03:18:05.613Z,18.52
2017-08-27T03:19:59.733Z,18.69
2017-08-27T03:20:59.749Z,18.62
2017-08-27T03:22:54.245Z,18.62
2017-08-27T03:23:54.253Z,18.50
2017-08-27T03:25:48.701Z,18.62
2017-08-27T03:26:48.733Z,18.58
2017-08-27T03:28:43.230Z,18.67
2017-08-27T03:29:43.229Z,18.55
2017-08-27T03:31:37.717Z,18.54
2017-08-27T03:32:38.021Z,18.58
2017-08-27T03:34:32.213Z,18.54
2017-08-27T03:35:32.229Z,18.51
2017-08-27T03:37:26.726Z,18.52
2017-08-27T03:38:26.717Z,18.57
2017-08-27T03:40:21.190Z,18.50
2017-08-27T03:41:21.214Z,18.45
2017-08-27T03:43:15.694Z,18.48
2017-08-27T03:44:15.821Z,18.58
2017-08-27T03:46:10.334Z,18.54
2017-08-27T03:47:10.206Z,18.54
2017-08-27T03:49:05.047Z,18.44
2017-08-27T03:50:04.958Z,18.51
2017-08-27T03:51:59.142Z,18.50
2017-08-27T03:52:59.359Z,18.47
2017-08-27T03:54:53.902Z,18.50
2017-08-27T03:55:53.702Z,18.52
2017-08-27T03:57:48.174Z,18.51
2017-08-27T03:58:48.446Z,18.48
2017-08-27T04:00:42.638Z,18.44
2017-08-27T04:01:42.678Z,18.55
2017-08-27T04:03:37.311Z,18.48
2017-08-27T04:04:37.174Z,18.35
2017-08-27T04:06:31.681Z,18.39
2017-08-27T04:07:31.655Z,18.36
2017-08-27T04:09:26.119Z,18.47
2017-08-27T04:10:26.159Z,18.36
2017-08-27T04:12:20.630Z,18.30
2017-08-27T04:13:20.655Z,18.32
2017-08-27T04:15:15.111Z,18.18
2017-08-27T04:16:15.159Z,18.23
2017-08-27T04:18:09.623Z,18.18
2017-08-27T04:19:09.639Z,18.30
2017-08-27T04:21:04.168Z,18.25
2017-08-27T04:22:04.368Z,18.14
2017-08-27T04:23:58.647Z,18.27
2017-08-27T04:24:58.855Z,18.23
2017-08-27T04:26:53.112Z,18.15
2017-08-27T04:27:53.151Z,18.21
2017-08-27T04:29:47.644Z,18.11
2017-08-27T04:30:47.648Z,18.12
2017-08-27T04:32:42.296Z,18.12
2017-08-27T04:33:42.161Z,18.14
2017-08-27T04:35:36.624Z,18.20
2017-08-27T04:36:36.632Z,18.10
2017-08-27T04:38:31.120Z,18.10
2017-08-27T04:39:31.368Z,18.00
2017-08-27T04:41:25.596Z,18.05
2017-08-27T04:42:25.637Z,18.00
2017-08-27T04:44:20.096Z,17.99
2017-08-27T04:45:20.128Z,18.05
2017-08-27T04:47:14.608Z,18.14
2017-08-27T04:48:14.632Z,18.07
2017-08-27T04:50:09.080Z,18.12
2017-08-27T04:51:09.120Z,18.10
2017-08-27T04:53:03.777Z,18.05
2017-08-27T04:54:03.624Z,18.10
2017-08-27T04:55:58.112Z,18.10
2017-08-27T04:56:58.115Z,18.10
2017-08-27T04:58:51.577Z,18.11
2017-08-27T04:59:51.644Z,18.07
2017-08-27T05:01:46.097Z,18.07
2017-08-27T05:02:46.161Z,18.08
2017-08-27T05:04:40.626Z,18.10
2017-08-27T05:05:40.625Z,18.10
2017-08-27T05:07:35.074Z,18.07
2017-08-27T05:08:35.105Z,18.07
2017-08-27T05:10:29.577Z,18.12
2017-08-27T05:11:29.641Z,18.10
2017-08-27T05:13:24.066Z,18.11
2017-08-27T05:14:24.106Z,18.08
2017-08-27T05:16:18.586Z,18.10
2017-08-27T05:17:18.602Z,18.03
2017-08-27T05:19:13.089Z,18.10
2017-08-27T05:20:13.122Z,18.07
2017-08-27T05:22:07.570Z,18.12
2017-08-27T05:23:07.682Z,18.00
2017-08-27T05:25:02.074Z,18.10
2017-08-27T05:26:02.076Z,18.14
2017-08-27T05:27:56.627Z,18.10
2017-08-27T05:28:56.594Z,18.14
2017-08-27T05:30:50.155Z,18.10
2017-08-27T05:31:50.331Z,18.11
2017-08-27T05:33:44.610Z,18.17
2017-08-27T05:34:44.650Z,18.20
2017-08-27T05:36:38.147Z,18.32
2017-08-27T05:37:38.139Z,18.23
2017-08-27T05:39:32.702Z,18.33
2017-08-27T05:40:32.730Z,18.27
2017-08-27T05:42:27.091Z,18.42
2017-08-27T05:43:27.123Z,18.32
2017-08-27T05:45:21.611Z,18.45
2017-08-27T05:46:21.620Z,18.36
2017-08-27T05:48:16.068Z,18.47
2017-08-27T05:49:16.235Z,18.33
2017-08-27T05:51:10.683Z,18.47
2017-08-27T05:52:10.612Z,18.52
2017-08-27T05:54:05.124Z,18.51
2017-08-27T05:55:05.116Z,18.52
2017-08-27T05:56:59.555Z,18.62
2017-08-27T05:58:08.284Z,18.67
2017-08-27T05:59:54.076Z,18.66
2017-08-27T06:00:54.172Z,18.66
2017-08-27T06:02:48.572Z,18.72
2017-08-27T06:03:48.596Z,18.69
2017-08-27T06:05:43.172Z,18.80
2017-08-27T06:06:43.132Z,18.66
2017-08-27T06:08:36.685Z,18.72
2017-08-27T06:09:36.756Z,18.62
2017-08-27T06:11:30.132Z,18.80
2017-08-27T06:12:30.141Z,18.82
2017-08-27T06:14:23.676Z,18.90
2017-08-27T06:15:23.660Z,18.80
2017-08-27T06:17:18.046Z,18.95
2017-08-27T06:18:18.092Z,18.90
2017-08-27T06:20:12.588Z,18.90
2017-08-27T06:21:12.756Z,18.95
2017-08-27T06:23:07.117Z,18.99
2017-08-27T06:24:07.092Z,18.99
2017-08-27T06:26:01.567Z,19.06
2017-08-27T06:27:01.597Z,19.00
2017-08-27T06:28:56.053Z,18.94
2017-08-27T06:29:56.092Z,19.02
2017-08-27T06:31:52.813Z,19.06
2017-08-27T06:32:51.573Z,19.04
2017-08-27T06:34:45.102Z,19.04
2017-08-27T06:35:45.101Z,19.06
2017-08-27T06:37:39.829Z,19.02
2017-08-27T06:38:39.590Z,19.04
2017-08-27T06:40:34.093Z,19.10
2017-08-27T06:41:34.166Z,19.11
2017-08-27T06:43:28.734Z,19.22
2017-08-27T06:44:28.622Z,19.25
2017-08-27T06:46:23.078Z,19.22
2017-08-27T06:47:23.095Z,19.31
2017-08-27T06:49:16.534Z,19.29
2017-08-27T06:50:16.814Z,19.25
2017-08-27T06:52:11.144Z,19.36
2017-08-27T06:53:11.150Z,19.32
2017-08-27T06:55:05.550Z,19.32
2017-08-27T06:56:05.591Z,19.39
2017-08-27T06:58:00.070Z,19.43
2017-08-27T06:59:00.094Z,19.44
2017-08-27T07:00:54.599Z,19.46
2017-08-27T07:01:54.606Z,19.54
2017-08-27T07:03:49.127Z,19.56
2017-08-27T07:04:49.094Z,19.65
2017-08-27T07:06:43.551Z,19.68
2017-08-27T07:07:43.598Z,19.71
2017-08-27T07:09:38.070Z,19.63
2017-08-27T07:10:38.079Z,19.81
2017-08-27T07:12:32.543Z,19.87
2017-08-27T07:13:32.574Z,19.81
2017-08-27T07:15:27.071Z,20.01
2017-08-27T07:16:27.082Z,20.06
2017-08-27T07:18:21.623Z,20.03
2017-08-27T07:19:21.623Z,20.13
2017-08-27T07:21:16.031Z,20.05
2017-08-27T07:22:16.079Z,20.10
2017-08-27T07:24:10.622Z,20.29
2017-08-27T07:25:10.638Z,20.26
2017-08-27T07:27:05.071Z,20.38
2017-08-27T07:28:05.089Z,20.48
2017-08-27T07:29:59.567Z,20.61
2017-08-27T07:30:59.614Z,20.70
2017-08-27T07:32:54.055Z,20.84
2017-08-27T07:33:54.103Z,20.87
2017-08-27T07:35:48.599Z,20.95
2017-08-27T07:36:48.607Z,20.98
2017-08-27T07:38:43.055Z,21.16
2017-08-27T07:39:43.138Z,21.14
2017-08-27T07:41:37.639Z,21.38
2017-08-27T07:42:37.607Z,21.50
2017-08-27T07:44:32.072Z,21.67
2017-08-27T07:45:32.111Z,21.71
2017-08-27T07:47:25.591Z,21.82
2017-08-27T07:48:25.599Z,21.86
2017-08-27T07:50:20.071Z,21.79
2017-08-27T07:51:20.140Z,21.83
2017-08-27T07:53:14.608Z,22.02
2017-08-27T07:54:14.879Z,21.99
2017-08-27T07:56:10.936Z,22.05
2017-08-27T07:57:10.647Z,22.12
2017-08-27T07:59:05.143Z,22.15
2017-08-27T08:00:05.183Z,22.14
2017-08-27T08:01:59.586Z,22.25
2017-08-27T08:02:59.640Z,22.30
2017-08-27T08:04:54.145Z,22.30
2017-08-27T08:05:54.144Z,22.31
2017-08-27T08:07:47.620Z,22.47
2017-08-27T08:08:47.665Z,22.51
2017-08-27T08:10:42.152Z,22.76
2017-08-27T08:11:42.192Z,22.76
2017-08-27T08:13:36.632Z,22.94
2017-08-27T08:14:36.668Z,23.05
2017-08-27T08:16:38.980Z,23.10
2017-08-27T08:17:31.188Z,23.17
2017-08-27T08:19:25.725Z,23.28
2017-08-27T08:20:25.908Z,23.42
2017-08-27T08:22:20.237Z,23.61
2017-08-27T08:23:20.773Z,23.58
2017-08-27T08:25:15.045Z,23.69
2017-08-27T08:26:14.709Z,23.72
2017-08-27T08:28:09.244Z,23.83
2017-08-27T08:29:09.261Z,23.94
2017-08-27T08:31:04.405Z,24.05
2017-08-27T08:32:03.757Z,24.06
2017-08-27T08:33:58.221Z,24.13
2017-08-27T08:34:58.261Z,24.15
2017-08-27T08:36:52.749Z,24.46
2017-08-27T08:37:52.797Z,24.57
2017-08-27T08:39:47.253Z,24.62
2017-08-27T08:40:47.277Z,24.65
2017-08-27T08:42:42.107Z,24.99
2017-08-27T08:43:41.846Z,25.03
2017-08-27T08:45:35.286Z,25.35
2017-08-27T08:46:35.326Z,25.33
2017-08-27T08:48:29.894Z,25.51
2017-08-27T08:49:29.846Z,25.64
2017-08-27T08:51:24.950Z,25.67
2017-08-27T08:52:24.534Z,25.75
2017-08-27T08:54:19.030Z,25.97
2017-08-27T08:55:19.014Z,25.90
2017-08-27T08:57:13.483Z,26.05
2017-08-27T08:58:13.547Z,26.21
2017-08-27T09:00:08.038Z,26.48
2017-08-27T09:01:08.067Z,26.54
2017-08-27T09:03:02.571Z,26.69
2017-08-27T09:04:02.604Z,26.88
2017-08-27T09:05:55.939Z,27.24
2017-08-27T09:06:55.699Z,27.22
2017-08-27T09:08:49.259Z,27.39
2017-08-27T09:09:49.251Z,27.63
2017-08-27T09:11:43.027Z,27.49
2017-08-27T09:12:43.517Z,27.49
2017-08-27T09:14:36.210Z,27.74
2017-08-27T09:15:36.004Z,27.67
2017-08-27T09:17:30.458Z,28.03
2017-08-27T09:18:30.522Z,28.11
2017-08-27T09:20:24.114Z,28.44
2017-08-27T09:21:24.155Z,28.49
2017-08-27T09:23:17.810Z,28.39
2017-08-27T09:24:17.778Z,28.55
2017-08-27T09:26:15.290Z,28.83
2017-08-27T09:27:11.094Z,28.92
2017-08-27T09:29:05.542Z,29.31
2017-08-27T09:30:06.254Z,29.34
2017-08-27T09:32:01.077Z,29.37
2017-08-27T09:33:00.245Z,29.33
2017-08-27T09:34:58.550Z,29.52
2017-08-27T09:35:55.526Z,29.70
2017-08-27T09:37:49.974Z,29.67
2017-08-27T09:38:50.023Z,29.89
2017-08-27T09:40:44.486Z,30.19
2017-08-27T09:41:44.526Z,30.31
2017-08-27T09:43:39.006Z,30.26
2017-08-27T09:44:39.046Z,30.42
2017-08-27T09:46:32.526Z,30.72
2017-08-27T09:47:32.615Z,30.94
2017-08-27T09:49:27.438Z,31.28
2017-08-27T09:50:28.454Z,31.25
2017-08-27T09:52:22.618Z,31.48
2017-08-27T09:53:22.655Z,31.69
2017-08-27T09:55:17.238Z,31.95
2017-08-27T09:56:25.863Z,32.10
2017-08-27T09:58:22.080Z,32.15
2017-08-27T10:01:16.294Z,32.43
2017-08-27T10:02:15.509Z,32.44
2017-08-27T10:04:10.006Z,32.51
2017-08-27T10:07:12.262Z,33.09
2017-08-27T10:08:11.295Z,33.32
2017-08-27T10:09:59.454Z,33.73
2017-08-27T10:10:57.190Z,33.86
2017-08-27T10:12:50.607Z,34.10
2017-08-27T10:14:00.750Z,34.30
2017-08-27T10:15:45.190Z,34.42
2017-08-27T10:16:45.182Z,34.43
2017-08-27T10:18:39.655Z,35.00
2017-08-27T10:19:39.783Z,35.04
2017-08-27T10:21:34.223Z,35.15
2017-08-27T10:22:34.310Z,35.18
2017-08-27T10:24:28.951Z,35.72
2017-08-27T10:25:28.823Z,35.75
2017-08-27T10:27:24.446Z,35.81
2017-08-27T10:28:24.503Z,35.85
2017-08-27T10:30:18.927Z,36.22
2017-08-27T10:31:18.743Z,36.44
2017-08-27T10:33:16.151Z,36.78
2017-08-27T10:35:30.176Z,37.31
2017-08-27T10:36:29.664Z,37.60
2017-08-27T10:38:22.272Z,38.15
2017-08-27T10:39:22.032Z,38.01
2017-08-27T10:41:15.634Z,38.63
2017-08-27T10:42:15.695Z,38.90
2017-08-27T10:44:42.808Z,39.40
2017-08-27T10:45:41.752Z,39.82
2017-08-27T10:47:26.272Z,40.01
2017-08-27T10:48:26.280Z,39.88
2017-08-27T10:50:20.792Z,40.00
2017-08-27T10:51:21.144Z,40.08
2017-08-27T10:53:16.968Z,40.74
2017-08-27T10:54:16.904Z,41.06
2017-08-27T10:56:11.351Z,41.10
2017-08-27T10:57:11.672Z,41.44
2017-08-27T10:59:05.153Z,41.84
2017-08-27T11:00:05.058Z,42.06
2017-08-27T11:01:58.824Z,42.92
2017-08-27T11:02:58.576Z,42.78
2017-08-27T11:04:53.057Z,43.19
2017-08-27T11:05:53.113Z,43.50
2017-08-27T11:07:47.601Z,43.76
2017-08-27T11:08:47.642Z,43.57
2017-08-27T11:10:45.785Z,44.47
2017-08-27T11:11:42.193Z,44.89
2017-08-27T11:13:36.705Z,44.95
2017-08-27T11:14:37.009Z,44.80
2017-08-27T11:16:31.680Z,45.74
2017-08-27T11:17:31.328Z,46.18
2017-08-27T11:19:27.546Z,46.81
2017-08-27T11:21:43.049Z,47.66
2017-08-27T11:22:42.057Z,48.11
2017-08-27T11:24:36.729Z,48.54
2017-08-27T11:25:36.827Z,48.81
2017-08-27T11:27:32.556Z,48.58
2017-08-27T11:28:32.513Z,48.98
2017-08-27T11:30:27.017Z,50.01
2017-08-27T11:31:27.049Z,50.45
2017-08-27T11:33:21.657Z,48.23
2017-08-27T11:34:21.609Z,49.43
2017-08-27T11:36:16.154Z,50.08
2017-08-27T11:37:16.402Z,50.54
2017-08-27T11:39:10.898Z,51.86
2017-08-27T11:40:11.690Z,51.94
2017-08-27T11:42:04.290Z,52.22
2017-08-27T11:43:07.651Z,52.34
2017-08-27T11:44:58.938Z,52.86
2017-08-27T11:45:59.458Z,52.80
2017-08-27T11:47:52.487Z,53.87
2017-08-27T11:48:52.614Z,52.38
2017-08-27T11:50:46.058Z,49.77
2017-08-27T11:51:46.110Z,49.43
2017-08-27T11:53:39.562Z,51.08
2017-08-27T11:54:39.610Z,51.61
2017-08-27T11:56:34.124Z,52.63
2017-08-27T11:57:34.163Z,53.39
2017-08-27T11:59:28.635Z,52.67
2017-08-27T12:00:29.691Z,52.73
2017-08-27T12:02:23.234Z,50.90
2017-08-27T12:03:23.234Z,50.89
2017-08-27T12:05:17.747Z,50.23
2017-08-27T12:06:17.770Z,50.70
2017-08-27T12:08:12.340Z,49.99
2017-08-27T12:09:12.315Z,50.33
2017-08-27T12:11:06.811Z,48.23
2017-08-27T12:12:06.875Z,47.36
2017-08-27T12:14:01.444Z,45.72
2017-08-27T12:15:01.389Z,45.23
2017-08-27T12:16:56.316Z,43.95
2017-08-27T12:17:56.356Z,43.66
2017-08-27T12:19:50.819Z,41.93
2017-08-27T12:20:50.867Z,42.61
2017-08-27T12:22:58.739Z,46.66
2017-08-27T12:23:58.684Z,47.91
2017-08-27T12:26:49.044Z,50.50
2017-08-27T12:28:46.131Z,51.68
2017-08-27T12:29:46.596Z,52.46
2017-08-27T12:31:40.220Z,53.05
2017-08-27T12:32:49.844Z,53.91
2017-08-27T12:34:32.316Z,54.41
2017-08-27T12:35:32.356Z,54.89
